Time;durP1;ratioP1;P1;durP2;ratioP2;P2;SDS_P1;SDS_P2;PMS_P1;PMS_P2;Temp;Humidity;BMP_temperature;BMP_pressure;BME280_temperature;BME280_humidity;BME280_pressure;Samples;Min_cycle;Max_cycle;Signal;HPM_P1;HPM_P2
2022/06/02 00:01:15;;;;;;;4.07;1.50;;;;;11.10;94278.00;;;;7393694;19;20113;-76
2022/06/02 00:04:10;;;;;;;1.85;1.13;;;;;11.10;94279.00;;;;7394058;19;20607;-76
2022/06/02 00:06:57;;;;;;;1.55;1.40;;;;;11.10;94278.00;;;;7393702;19;20117;-76
2022/06/02 00:09:46;;;;;;;3.03;1.27;;;;;11.10;94284.00;;;;7391298;19;20133;-75
2022/06/02 00:13:00;;;;;;;2.42;1.27;;;;;11.20;94287.00;;;;7392715;19;20125;-76
2022/06/02 00:15:45;;;;;;;1.83;1.30;;;;;11.20;94272.00;;;;7388474;19;20583;-75
2022/06/02 00:18:19;;;;;;;1.58;1.13;;;;;11.10;94280.00;;;;7390128;19;20124;-76
2022/06/02 00:20:59;;;;;;;1.83;1.33;;;;;11.20;94279.00;;;;7389782;19;20623;-76
2022/06/02 00:23:42;;;;;;;2.88;1.20;;;;;11.20;94278.00;;;;7390524;19;20155;-76
2022/06/02 00:26:25;;;;;;;3.30;1.17;;;;;11.20;94282.00;;;;7390250;19;20600;-76
2022/06/02 00:29:25;;;;;;;2.05;1.10;;;;;11.10;94287.00;;;;7390366;19;20168;-77
2022/06/02 00:32:10;;;;;;;2.35;1.63;;;;;11.20;94287.00;;;;7391371;19;20128;-76
2022/06/02 00:34:51;;;;;;;2.45;1.48;;;;;11.20;94290.00;;;;7390463;19;20133;-76
2022/06/02 00:37:33;;;;;;;2.33;1.42;;;;;11.00;94280.00;;;;7392400;19;20587;-76
2022/06/02 00:40:02;;;;;;;3.28;1.20;;;;;11.00;94279.00;;;;7395007;19;20144;-76
2022/06/02 00:42:58;;;;;;;2.55;1.30;;;;;11.00;94270.00;;;;7398014;19;20136;-76
2022/06/02 00:45:26;;;;;;;2.33;1.38;;;;;11.00;94272.00;;;;7397831;19;20588;-77
2022/06/02 00:48:25;;;;;;;1.83;1.30;;;;;11.00;94278.00;;;;7398872;19;20127;-76
2022/06/02 00:51:03;;;;;;;1.40;1.30;;;;;10.90;94287.00;;;;7397264;19;20132;-76
2022/06/02 01:00:04;;;;;;;1.23;1.13;;;;;10.80;94292.00;;;;7398593;19;20174;-76
2022/06/02 01:02:47;;;;;;;2.05;1.50;;;;;10.80;94300.00;;;;7397222;19;20135;-75
2022/06/02 01:05:57;;;;;;;3.08;1.50;;;;;10.70;94303.00;;;;7398182;19;20129;-76
2022/06/02 01:08:46;;;;;;;2.88;1.33;;;;;10.70;94287.00;;;;7395874;19;20129;-76
2022/06/02 01:11:36;;;;;;;3.65;1.58;;;;;10.70;94297.00;;;;7396244;19;20137;-75
2022/06/02 01:14:31;;;;;;;1.63;1.52;;;;;10.60;94293.00;;;;7397857;19;20133;-75
2022/06/02 01:17:16;;;;;;;3.00;1.40;;;;;10.60;94289.00;;;;7396323;19;20207;-76
2022/06/02 01:20:22;;;;;;;3.85;1.67;;;;;10.50;94290.00;;;;7396496;19;20131;-76
2022/06/02 01:23:24;;;;;;;3.15;1.33;;;;;10.50;94295.00;;;;7397301;19;20121;-76
2022/06/02 01:26:23;;;;;;;1.77;1.30;;;;;10.60;94296.00;;;;7396020;19;20718;-75
2022/06/02 01:29:46;;;;;;;2.57;1.57;;;;;10.70;94284.00;;;;7394886;19;20168;-75
2022/06/02 01:32:27;;;;;;;2.70;1.60;;;;;10.60;94283.00;;;;7397481;19;20625;-75
2022/06/02 01:35:27;;;;;;;1.70;1.27;;;;;10.60;94286.00;;;;7397421;19;20608;-75
2022/06/02 01:38:30;;;;;;;3.80;1.45;;;;;10.50;94292.00;;;;7397634;19;20128;-75
2022/06/02 01:41:04;;;;;;;2.85;1.45;;;;;10.50;94289.00;;;;7398185;19;20203;-75
2022/06/02 01:43:35;;;;;;;3.72;1.50;;;;;10.50;94296.00;;;;7394644;19;20144;-75
2022/06/02 01:46:18;;;;;;;1.85;1.25;;;;;10.40;94296.00;;;;7396375;19;20450;-75
2022/06/02 01:48:59;;;;;;;5.05;1.58;;;;;10.40;94286.00;;;;7396142;19;20137;-76
2022/06/02 01:51:43;;;;;;;2.33;1.52;;;;;10.40;94304.00;;;;7393723;19;20136;-76
2022/06/02 01:54:29;;;;;;;3.25;1.40;;;;;10.40;94308.00;;;;7397501;19;20133;-75
2022/06/02 01:57:22;;;;;;;1.63;1.40;;;;;10.50;94311.00;;;;7396450;19;20192;-75
2022/06/02 02:00:05;;;;;;;3.03;1.70;;;;;10.60;94307.00;;;;7396565;19;20174;-75
2022/06/02 02:02:58;;;;;;;3.75;1.48;;;;;10.60;94305.00;;;;7397304;19;20193;-75
2022/06/02 02:05:48;;;;;;;1.90;1.35;;;;;10.60;94302.00;;;;7395855;19;20129;-75
2022/06/02 02:08:50;;;;;;;1.90;1.40;;;;;10.60;94305.00;;;;7395146;19;20597;-75
2022/06/02 02:11:36;;;;;;;2.72;1.40;;;;;10.60;94307.00;;;;7395532;19;20144;-75
2022/06/02 02:14:24;;;;;;;3.60;1.70;;;;;10.60;94305.00;;;;7396410;19;20125;-75
2022/06/02 02:17:06;;;;;;;2.20;1.45;;;;;10.60;94308.00;;;;7394208;19;20145;-75
2022/06/02 02:20:05;;;;;;;3.05;1.27;;;;;10.50;94314.00;;;;7394724;19;20156;-75
2022/06/02 02:23:17;;;;;;;5.25;1.40;;;;;10.50;94305.00;;;;7395995;19;20117;-74
2022/06/02 02:26:01;;;;;;;4.40;1.38;;;;;10.60;94311.00;;;;7394584;19;20484;-75
2022/06/02 02:29:12;;;;;;;1.97;1.50;;;;;10.60;94309.00;;;;7394288;19;20137;-75
2022/06/02 02:32:18;;;;;;;2.75;1.52;;;;;10.50;94317.00;;;;7394842;19;20136;-75
2022/06/02 02:35:13;;;;;;;2.08;1.30;;;;;10.50;94308.00;;;;7394271;19;20142;-75
2022/06/02 02:37:47;;;;;;;4.38;1.40;;;;;10.50;94306.00;;;;7396277;19;20152;-74
2022/06/02 02:40:45;;;;;;;5.03;1.80;;;;;10.40;94304.00;;;;7394579;19;20128;-75
2022/06/02 02:43:27;;;;;;;2.85;1.60;;;;;10.50;94305.00;;;;7394088;19;20157;-75
2022/06/02 02:46:04;;;;;;;1.80;1.40;;;;;10.40;94311.00;;;;7395758;19;20584;-75
2022/06/02 02:48:50;;;;;;;2.10;1.40;;;;;10.40;94312.00;;;;7393655;19;20137;-74
2022/06/02 02:51:33;;;;;;;7.85;1.42;;;;;10.30;94315.00;;;;7394719;19;20125;-74
2022/06/02 02:54:32;;;;;;;3.75;1.70;;;;;10.20;94324.00;;;;7394608;19;20602;-74
2022/06/02 02:57:37;;;;;;;2.50;1.50;;;;;10.20;94328.00;;;;7393431;19;20483;-75
2022/06/02 03:00:14;;;;;;;3.15;1.70;;;;;10.20;94321.00;;;;7392746;19;20136;-75
2022/06/02 03:03:16;;;;;;;3.67;1.50;;;;;10.20;94322.00;;;;7392081;19;20147;-74
2022/06/02 03:05:52;;;;;;;1.90;1.67;;;;;10.20;94328.00;;;;7393226;19;20141;-75
2022/06/02 03:08:45;;;;;;;4.82;1.67;;;;;10.20;94329.00;;;;7392786;19;20146;-76
2022/06/02 03:11:42;;;;;;;2.47;1.48;;;;;10.20;94332.00;;;;7391990;19;20155;-75
2022/06/02 03:14:47;;;;;;;3.30;1.50;;;;;10.30;94323.00;;;;7392739;19;20128;-75
2022/06/02 03:17:41;;;;;;;5.63;1.73;;;;;10.30;94313.00;;;;7392270;19;20144;-73
2022/06/02 03:20:34;;;;;;;4.43;1.73;;;;;10.30;94320.00;;;;7392162;19;20141;-75
2022/06/02 03:23:33;;;;;;;2.47;1.25;;;;;10.20;94321.00;;;;7392247;19;20149;-74
2022/06/02 03:26:30;;;;;;;2.43;1.50;;;;;10.20;94319.00;;;;7392276;19;20128;-74
2022/06/02 03:29:48;;;;;;;3.63;1.63;;;;;10.10;94325.00;;;;7391352;19;20627;-74
2022/06/02 03:32:41;;;;;;;2.45;1.75;;;;;10.20;94321.00;;;;7392980;19;20591;-75
2022/06/02 03:35:17;;;;;;;1.80;1.10;;;;;10.20;94331.00;;;;7392161;19;20140;-75
2022/06/02 03:38:10;;;;;;;8.02;1.90;;;;;10.30;94324.00;;;;7392034;19;20157;-75
2022/06/02 03:41:24;;;;;;;3.60;1.90;;;;;10.40;94326.00;;;;7391952;19;20144;-74
2022/06/02 03:44:21;;;;;;;3.10;1.80;;;;;10.40;94324.00;;;;7393523;19;20133;-74
2022/06/02 03:47:01;;;;;;;2.85;1.70;;;;;10.30;94328.00;;;;7393068;19;20129;-74
2022/06/02 03:50:09;;;;;;;2.30;1.70;;;;;10.40;94318.00;;;;7391790;19;20200;-74
2022/06/02 03:52:47;;;;;;;4.72;1.63;;;;;10.40;94327.00;;;;7393296;19;20191;-74
2022/06/02 03:55:47;;;;;;;2.10;1.85;;;;;10.40;94327.00;;;;7391039;19;20604;-76
2022/06/02 03:58:49;;;;;;;2.10;1.60;;;;;10.40;94326.00;;;;7391466;19;20628;-74
2022/06/02 04:01:29;;;;;;;3.20;1.95;;;;;10.50;94324.00;;;;7389698;19;20150;-74
2022/06/02 04:04:20;;;;;;;2.63;1.70;;;;;10.40;94330.00;;;;7394566;19;20129;-74
2022/06/02 04:07:23;;;;;;;2.47;1.67;;;;;10.30;94328.00;;;;7390982;19;20113;-74
2022/06/02 04:10:16;;;;;;;2.40;1.60;;;;;10.30;94336.00;;;;7391404;19;20594;-74
2022/06/02 04:16:04;;;;;;;3.05;1.63;;;;;10.30;94331.00;;;;7386159;19;20473;-74
2022/06/02 04:20:34;;;;;;;2.95;1.48;;;;;10.30;94325.00;;;;7389308;19;20117;-74
2022/06/02 04:22:11;;;;;;;2.17;1.85;;;;;10.30;94329.00;;;;7389529;19;20167;-74
2022/06/02 04:25:18;;;;;;;2.95;1.95;;;;;10.30;94332.00;;;;7390268;19;20596;-74
2022/06/02 04:28:04;;;;;;;2.20;1.63;;;;;10.20;94333.00;;;;7391160;19;20180;-74
2022/06/02 04:31:18;;;;;;;2.10;1.90;;;;;10.20;94339.00;;;;7388875;19;20145;-74
2022/06/02 04:33:58;;;;;;;1.95;1.67;;;;;10.30;94338.00;;;;7396284;19;20128;-75
2022/06/02 04:37:12;;;;;;;2.10;1.83;;;;;10.40;94346.00;;;;7389441;19;20140;-75
2022/06/02 04:40:04;;;;;;;3.00;1.77;;;;;10.40;94341.00;;;;7391151;19;20132;-73
2022/06/02 04:42:41;;;;;;;4.60;1.90;;;;;10.30;94341.00;;;;7391390;19;20145;-73
2022/06/02 04:45:28;;;;;;;3.75;1.70;;;;;10.40;94351.00;;;;7391688;19;20254;-75
2022/06/02 04:48:12;;;;;;;3.30;2.20;;;;;10.40;94350.00;;;;7390084;19;20129;-75
2022/06/02 04:51:11;;;;;;;3.45;2.30;;;;;10.50;94352.00;;;;7389920;19;20490;-74
2022/06/02 04:54:04;;;;;;;5.30;2.20;;;;;10.60;94346.00;;;;7391022;19;20625;-75
2022/06/02 04:56:46;;;;;;;2.72;2.03;;;;;10.60;94342.00;;;;7388535;19;20143;-74
2022/06/02 04:59:26;;;;;;;3.38;2.40;;;;;10.80;94344.00;;;;7389611;19;20133;-75
2022/06/02 05:02:16;;;;;;;2.85;2.38;;;;;11.00;94344.00;;;;7390809;19;20125;-75
2022/06/02 05:04:52;;;;;;;2.10;1.80;;;;;11.10;94358.00;;;;7390985;19;20197;-74
2022/06/02 05:07:41;;;;;;;5.00;1.95;;;;;11.20;94345.00;;;;7392088;19;20636;-74
2022/06/02 05:10:37;;;;;;;8.55;2.45;;;;;11.30;94351.00;;;;7390060;19;20138;-75
2022/06/02 05:13:16;;;;;;;3.42;2.50;;;;;11.40;94355.00;;;;7390423;19;20129;-76
2022/06/02 05:16:14;;;;;;;3.75;2.60;;;;;11.50;94356.00;;;;7390472;19;20113;-74
2022/06/02 05:18:59;;;;;;;5.72;2.53;;;;;11.60;94355.00;;;;7389771;19;20619;-75
2022/06/02 05:22:09;;;;;;;3.28;2.13;;;;;11.70;94355.00;;;;7388121;19;20179;-74
2022/06/02 05:24:40;;;;;;;2.38;2.17;;;;;11.90;94364.00;;;;7391329;19;20137;-74
2022/06/02 05:27:47;;;;;;;3.35;2.85;;;;;11.90;94366.00;;;;7396232;19;20132;-74
2022/06/02 05:30:50;;;;;;;8.02;2.38;;;;;12.00;94364.00;;;;7394613;19;20144;-74
2022/06/02 05:33:44;;;;;;;3.60;2.05;;;;;12.10;94365.00;;;;7397201;19;20125;-74
2022/06/02 05:36:22;;;;;;;2.83;2.30;;;;;12.20;94367.00;;;;7395637;19;20551;-74
2022/06/02 05:39:02;;;;;;;3.42;2.30;;;;;12.40;94377.00;;;;7395476;19;20137;-74
2022/06/02 05:41:48;;;;;;;2.78;2.05;;;;;12.50;94378.00;;;;7397795;19;20145;-74
2022/06/02 05:44:34;;;;;;;2.42;1.80;;;;;12.50;94371.00;;;;7396395;19;20141;-75
2022/06/02 05:47:05;;;;;;;5.68;1.98;;;;;12.60;94374.00;;;;7395853;19;20145;-75
2022/06/02 05:50:03;;;;;;;3.65;2.05;;;;;12.70;94372.00;;;;7397543;19;20135;-75
2022/06/02 05:52:50;;;;;;;3.10;1.90;;;;;12.90;94366.00;;;;7395834;19;20133;-75
2022/06/02 05:55:54;;;;;;;2.42;1.67;;;;;13.40;94371.00;;;;7394903;19;20129;-75
2022/06/02 05:58:24;;;;;;;2.53;1.70;;;;;13.50;94370.00;;;;7394243;19;20137;-75
2022/06/02 06:01:07;;;;;;;4.10;2.00;;;;;13.70;94380.00;;;;7395643;19;20132;-74
2022/06/02 06:03:51;;;;;;;4.07;1.80;;;;;13.50;94380.00;;;;7394608;19;20694;-75
2022/06/02 06:06:32;;;;;;;6.85;2.58;;;;;13.40;94380.00;;;;7394393;19;20137;-75
2022/06/02 06:09:21;;;;;;;2.85;1.90;;;;;13.10;94378.00;;;;7395032;19;20907;-74
2022/06/02 06:12:29;;;;;;;2.67;1.80;;;;;13.10;94379.00;;;;7394123;19;20137;-74
2022/06/02 06:15:21;;;;;;;2.35;2.00;;;;;13.20;94379.00;;;;7393774;19;20714;-76
2022/06/02 06:18:18;;;;;;;2.63;1.90;;;;;13.40;94374.00;;;;7393950;19;20935;-76
2022/06/02 06:21:01;;;;;;;4.43;2.50;;;;;13.90;94380.00;;;;7392709;19;20133;-75
2022/06/02 06:24:21;;;;;;;1.90;1.80;;;;;13.70;94388.00;;;;7393337;19;20177;-76
2022/06/02 06:27:15;;;;;;;3.03;1.80;;;;;13.60;94389.00;;;;7392543;19;20133;-75
2022/06/02 06:30:17;;;;;;;2.20;1.83;;;;;14.00;94391.00;;;;7391642;19;20164;-75
2022/06/02 06:32:58;;;;;;;3.72;1.80;;;;;14.00;94394.00;;;;7394038;19;20137;-76
2022/06/02 06:35:57;;;;;;;2.10;1.88;;;;;14.60;94385.00;;;;7392558;19;20653;-74
2022/06/02 06:38:54;;;;;;;4.80;2.10;;;;;15.00;94384.00;;;;7390920;19;20133;-77
2022/06/02 06:41:34;;;;;;;5.30;1.77;;;;;15.10;94375.00;;;;7393387;19;20471;-76
2022/06/02 06:44:11;;;;;;;1.83;1.60;;;;;15.20;94380.00;;;;7392353;19;20473;-76
2022/06/02 06:47:02;;;;;;;3.53;1.73;;;;;15.90;94377.00;;;;7394025;19;20188;-75
2022/06/02 06:50:05;;;;;;;3.65;1.83;;;;;15.80;94386.00;;;;7393638;19;20140;-75
2022/06/02 06:53:29;;;;;;;2.88;1.90;;;;;16.10;94384.00;;;;7393853;19;20125;-75
2022/06/02 06:56:15;;;;;;;3.45;1.95;;;;;16.40;94375.00;;;;7391326;19;20584;-75
2022/06/02 06:58:48;;;;;;;2.70;1.95;;;;;16.80;94380.00;;;;7392250;19;20141;-75
2022/06/02 07:01:43;;;;;;;4.72;2.00;;;;;16.90;94377.00;;;;7391686;19;20477;-77
2022/06/02 07:04:44;;;;;;;3.20;1.90;;;;;16.80;94381.00;;;;7393569;19;20124;-76
2022/06/02 07:07:25;;;;;;;2.28;1.80;;;;;16.70;94399.00;;;;7391770;19;20132;-75
2022/06/02 07:10:17;;;;;;;2.67;1.70;;;;;16.30;94389.00;;;;7391956;19;20136;-75
2022/06/02 07:12:56;;;;;;;3.35;1.90;;;;;16.10;94390.00;;;;7392249;19;20237;-75
2022/06/02 07:16:03;;;;;;;2.38;1.80;;;;;16.50;94390.00;;;;7392581;19;20154;-75
2022/06/02 07:18:34;;;;;;;5.80;1.90;;;;;16.80;94395.00;;;;7392142;19;20503;-76
2022/06/02 07:21:18;;;;;;;2.72;1.85;;;;;16.40;94394.00;;;;7391968;19;20571;-75
2022/06/02 07:24:15;;;;;;;3.95;1.98;;;;;16.50;94391.00;;;;7392478;19;20147;-76
2022/06/02 07:27:06;;;;;;;2.20;1.73;;;;;16.50;94380.00;;;;7390139;19;20144;-75
2022/06/02 07:29:51;;;;;;;4.40;2.00;;;;;16.90;94385.00;;;;7394071;19;20543;-75
2022/06/02 07:32:40;;;;;;;2.75;2.00;;;;;16.80;94390.00;;;;7392522;19;20611;-77
2022/06/02 07:35:17;;;;;;;3.78;1.92;;;;;16.80;94388.00;;;;7392396;19;20620;-75
2022/06/02 07:37:58;;;;;;;3.10;1.88;;;;;17.00;94388.00;;;;7386464;19;20155;-74
2022/06/02 07:40:51;;;;;;;2.05;1.65;;;;;16.70;94393.00;;;;7391424;19;20947;-78
2022/06/02 07:43:25;;;;;;;3.72;1.50;;;;;17.30;94394.00;;;;7391824;19;20596;-75
2022/06/02 07:46:16;;;;;;;2.50;1.67;;;;;17.40;94387.00;;;;7391134;19;20141;-76
2022/06/02 07:49:35;;;;;;;8.77;1.80;;;;;17.10;94391.00;;;;7391094;19;20137;-76
2022/06/02 07:52:49;;;;;;;2.33;1.75;;;;;17.30;94393.00;;;;7390085;19;20129;-75
2022/06/02 07:55:42;;;;;;;3.33;1.60;;;;;17.90;94400.00;;;;7390668;19;20156;-75
2022/06/02 07:58:35;;;;;;;3.55;1.63;;;;;18.00;94396.00;;;;7387204;19;20133;-77
2022/06/02 08:01:19;;;;;;;2.97;2.00;;;;;18.00;94391.00;;;;7390526;19;20137;-75
2022/06/02 08:04:11;;;;;;;5.60;1.67;;;;;17.80;94400.00;;;;7391713;19;20136;-76
2022/06/02 08:07:08;;;;;;;2.88;1.77;;;;;18.40;94398.00;;;;7391039;19;20624;-75
2022/06/02 08:09:44;;;;;;;3.45;1.90;;;;;19.10;94393.00;;;;7386714;19;20175;-76
2022/06/02 08:12:26;;;;;;;7.05;1.98;;;;;18.50;94403.00;;;;7392610;19;20592;-75
2022/06/02 08:14:57;;;;;;;3.63;1.50;;;;;18.80;94402.00;;;;7391858;19;20137;-74
2022/06/02 08:17:44;;;;;;;2.72;1.50;;;;;19.10;94401.00;;;;7392105;19;20204;-75
2022/06/02 08:20:30;;;;;;;2.47;1.80;;;;;18.80;94399.00;;;;7395003;19;20211;-75
2022/06/02 08:23:23;;;;;;;5.32;1.67;;;;;19.40;94402.00;;;;7396058;19;20147;-74
2022/06/02 08:25:57;;;;;;;2.75;2.10;;;;;19.40;94401.00;;;;7394805;19;20125;-74
2022/06/02 08:29:09;;;;;;;7.63;2.00;;;;;19.40;94404.00;;;;7397474;19;20140;-74
2022/06/02 08:32:08;;;;;;;5.28;1.98;;;;;19.40;94396.00;;;;7396316;19;20212;-75
2022/06/02 08:35:12;;;;;;;2.33;1.80;;;;;19.80;94402.00;;;;7392331;19;20623;-75
2022/06/02 08:37:40;;;;;;;2.42;1.63;;;;;19.70;94394.00;;;;7392699;19;20133;-75
2022/06/02 08:40:39;;;;;;;2.13;1.85;;;;;20.00;94399.00;;;;7393774;19;20148;-73
2022/06/02 08:43:51;;;;;;;2.88;1.65;;;;;19.70;94400.00;;;;7394430;19;20128;-74
2022/06/02 08:46:28;;;;;;;2.72;1.60;;;;;19.90;94403.00;;;;7395741;19;20141;-75
2022/06/02 08:49:12;;;;;;;5.13;2.08;;;;;19.90;94408.00;;;;7393267;19;20162;-76
2022/06/02 08:52:07;;;;;;;2.97;1.98;;;;;19.90;94395.00;;;;7395187;19;20146;-75
2022/06/02 08:54:54;;;;;;;4.10;2.10;;;;;20.10;94405.00;;;;7395067;19;20129;-77
2022/06/02 08:58:07;;;;;;;2.53;2.08;;;;;20.70;94416.00;;;;7394510;19;20132;-75
2022/06/02 09:01:00;;;;;;;3.80;1.83;;;;;20.90;94406.00;;;;7395843;19;20902;-76
2022/06/02 09:03:38;;;;;;;3.15;2.20;;;;;21.10;94415.00;;;;7402309;19;20161;-76
2022/06/02 09:06:15;;;;;;;4.28;2.00;;;;;21.20;94415.00;;;;7402457;19;20129;-77
2022/06/02 09:09:18;;;;;;;4.13;1.77;;;;;21.30;94414.00;;;;7402095;19;20145;-77
2022/06/02 09:11:57;;;;;;;2.88;1.83;;;;;21.30;94412.00;;;;7401027;19;20135;-77
2022/06/02 09:15:12;;;;;;;2.60;1.90;;;;;21.20;94421.00;;;;7401833;19;20153;-75
2022/06/02 09:17:56;;;;;;;3.42;1.92;;;;;21.50;94422.00;;;;7398926;19;20614;-75
2022/06/02 09:21:06;;;;;;;2.60;1.90;;;;;21.80;94414.00;;;;7401186;19;20152;-76
2022/06/02 09:24:00;;;;;;;6.85;2.20;;;;;21.40;94414.00;;;;7400514;19;20219;-76
2022/06/02 09:26:53;;;;;;;4.82;2.20;;;;;21.40;94406.00;;;;7402798;19;20160;-77
2022/06/02 09:29:29;;;;;;;3.78;1.90;;;;;21.50;94412.00;;;;7396882;19;20133;-74
2022/06/02 09:32:31;;;;;;;3.45;2.00;;;;;21.50;94419.00;;;;7400876;19;20125;-73
2022/06/02 09:35:25;;;;;;;4.78;2.00;;;;;22.10;94420.00;;;;7397819;19;20140;-75
2022/06/02 09:38:06;;;;;;;2.55;1.70;;;;;21.80;94410.00;;;;7399006;19;20145;-75
2022/06/02 09:40:48;;;;;;;3.28;2.13;;;;;22.00;94410.00;;;;7401109;19;20129;-75
2022/06/02 09:43:41;;;;;;;2.72;1.90;;;;;22.10;94415.00;;;;7400801;19;20148;-76
2022/06/02 09:46:25;;;;;;;3.50;2.05;;;;;21.70;94406.00;;;;7402712;19;20125;-76
2022/06/02 09:49:39;;;;;;;3.50;1.70;;;;;21.90;94416.00;;;;7401767;19;20140;-75
2022/06/02 09:52:33;;;;;;;5.88;2.00;;;;;22.20;94413.00;;;;7402197;19;20145;-74
2022/06/02 09:55:35;;;;;;;3.95;1.60;;;;;22.40;94421.00;;;;7399952;19;20488;-74
2022/06/02 09:58:27;;;;;;;5.30;1.80;;;;;22.20;94415.00;;;;7402561;19;20520;-74
2022/06/02 10:01:36;;;;;;;7.78;2.03;;;;;22.20;94413.00;;;;7400856;19;20129;-74
2022/06/02 10:04:33;;;;;;;6.63;1.77;;;;;21.90;94411.00;;;;7399969;19;20137;-75
2022/06/02 10:07:07;;;;;;;4.03;1.75;;;;;22.30;94413.00;;;;7396608;19;20125;-75
2022/06/02 10:10:01;;;;;;;3.80;1.88;;;;;22.70;94414.00;;;;7398654;19;20484;-75
2022/06/02 10:12:55;;;;;;;3.42;1.80;;;;;22.90;94410.00;;;;7398110;19;20140;-75
2022/06/02 10:15:41;;;;;;;2.97;1.40;;;;;22.90;94410.00;;;;7397087;19;20132;-75
2022/06/02 10:18:25;;;;;;;4.78;2.15;;;;;23.40;94401.00;;;;7397746;19;20194;-75
2022/06/02 10:21:14;;;;;;;4.43;1.90;;;;;23.50;94411.00;;;;7396346;19;20171;-78
2022/06/02 10:24:24;;;;;;;7.88;2.25;;;;;24.10;94409.00;;;;7397316;19;20182;-78
2022/06/02 10:27:21;;;;;;;2.65;1.75;;;;;23.80;94407.00;;;;7395716;19;20160;-77
2022/06/02 10:30:22;;;;;;;3.90;2.22;;;;;24.00;94403.00;;;;7395394;19;20180;-78
2022/06/02 10:33:05;;;;;;;7.20;2.38;;;;;24.00;94404.00;;;;7396624;19;20534;-76
2022/06/02 10:36:03;;;;;;;3.85;1.98;;;;;23.80;94404.00;;;;7396562;19;20140;-76
2022/06/02 10:38:39;;;;;;;2.72;1.80;;;;;24.00;94406.00;;;;7397611;19;20157;-77
2022/06/02 10:41:19;;;;;;;3.92;1.83;;;;;23.70;94393.00;;;;7395712;19;20128;-77
2022/06/02 10:44:11;;;;;;;7.13;2.05;;;;;23.70;94399.00;;;;7398662;19;20141;-77
2022/06/02 10:47:07;;;;;;;2.25;2.00;;;;;23.70;94391.00;;;;7400617;19;20151;-76
2022/06/02 10:49:44;;;;;;;2.60;1.90;;;;;24.20;94393.00;;;;7399252;19;20129;-76
2022/06/02 10:52:38;;;;;;;5.85;2.00;;;;;24.40;94409.00;;;;7398198;19;20136;-75
2022/06/02 10:55:28;;;;;;;2.70;2.10;;;;;24.30;94398.00;;;;7396770;19;20864;-77
2022/06/02 10:58:40;;;;;;;8.75;2.15;;;;;24.10;94397.00;;;;7399096;19;20498;-75
2022/06/02 11:01:26;;;;;;;3.33;1.80;;;;;24.60;94391.00;;;;7398540;19;20135;-75
2022/06/02 11:04:35;;;;;;;3.92;1.95;;;;;24.10;94400.00;;;;7400890;19;20157;-78
2022/06/02 11:07:31;;;;;;;5.35;1.70;;;;;23.60;94407.00;;;;7399213;19;20132;-78
2022/06/02 11:10:08;;;;;;;2.17;1.90;;;;;24.70;94390.00;;;;7400188;19;20152;-77
2022/06/02 11:13:14;;;;;;;1.77;1.67;;;;;24.60;94397.00;;;;7400663;19;20133;-77
2022/06/02 11:16:06;;;;;;;2.97;1.88;;;;;25.40;94390.00;;;;7397439;19;20145;-75
2022/06/02 11:19:07;;;;;;;6.07;2.00;;;;;25.00;94394.00;;;;7397632;19;20166;-77
2022/06/02 11:22:11;;;;;;;3.45;1.90;;;;;25.70;94390.00;;;;7396829;19;20484;-79
2022/06/02 11:25:00;;;;;;;5.00;1.67;;;;;26.00;94393.00;;;;7399748;19;20125;-78
2022/06/02 11:28:04;;;;;;;5.13;2.08;;;;;26.30;94395.00;;;;7396969;19;20128;-79
2022/06/02 11:31:14;;;;;;;5.47;1.80;;;;;26.00;94388.00;;;;7398224;19;20199;-77
2022/06/02 11:34:17;;;;;;;3.42;1.88;;;;;24.10;94391.00;;;;7391212;19;20160;-79
2022/06/02 11:37:00;;;;;;;2.83;1.80;;;;;24.80;94380.00;;;;7393644;19;20153;-78
2022/06/02 11:39:50;;;;;;;2.58;2.25;;;;;24.70;94390.00;;;;7394487;19;20153;-80
2022/06/02 11:42:31;;;;;;;4.10;1.95;;;;;25.10;94371.00;;;;7392890;19;20638;-77
2022/06/02 11:45:28;;;;;;;3.85;1.80;;;;;25.00;94358.00;;;;7390141;19;20583;-79
2022/06/02 11:48:10;;;;;;;4.07;1.83;;;;;23.30;94375.00;;;;7393849;19;20144;-79
2022/06/02 11:51:08;;;;;;;3.72;1.85;;;;;23.90;94373.00;;;;7392929;19;20508;-78
2022/06/02 11:53:57;;;;;;;3.63;2.15;;;;;24.30;94376.00;;;;7395838;19;20128;-77
2022/06/02 11:57:00;;;;;;;2.90;1.90;;;;;24.20;94375.00;;;;7393742;19;20152;-78
2022/06/02 11:59:50;;;;;;;3.58;2.10;;;;;24.30;94372.00;;;;7389760;19;20576;-77
2022/06/02 12:02:55;;;;;;;8.23;2.30;;;;;24.50;94383.00;;;;7393758;19;20152;-78
2022/06/02 12:05:45;;;;;;;5.72;2.10;;;;;24.10;94385.00;;;;7392583;19;20158;-78
2022/06/02 12:08:39;;;;;;;2.20;2.00;;;;;24.50;94379.00;;;;7391914;19;20196;-79
2022/06/02 12:11:38;;;;;;;2.40;1.80;;;;;24.50;94370.00;;;;7391536;19;20165;-78
2022/06/02 12:14:33;;;;;;;4.32;2.00;;;;;24.50;94369.00;;;;7392387;19;20191;-77
2022/06/02 12:17:19;;;;;;;4.78;1.80;;;;;24.80;94365.00;;;;7395182;19;20469;-79
2022/06/02 12:20:38;;;;;;;2.80;2.00;;;;;24.40;94371.00;;;;7395374;19;20216;-77
2022/06/02 12:23:36;;;;;;;5.55;1.70;;;;;24.00;94375.00;;;;7394888;19;20149;-78
2022/06/02 12:26:12;;;;;;;4.88;1.90;;;;;24.00;94378.00;;;;7398252;19;20172;-76
2022/06/02 12:28:58;;;;;;;6.03;1.92;;;;;24.30;94370.00;;;;7397634;19;20133;-76
2022/06/02 12:31:56;;;;;;;3.25;1.90;;;;;24.50;94362.00;;;;7393237;19;20162;-75
2022/06/02 12:34:23;;;;;;;5.10;2.10;;;;;24.30;94354.00;;;;7395467;19;20172;-75
2022/06/02 12:37:04;;;;;;;3.10;1.70;;;;;24.70;94365.00;;;;7392721;19;20610;-75
2022/06/02 12:40:09;;;;;;;6.03;1.90;;;;;25.00;94349.00;;;;7392965;19;20159;-75
2022/06/02 12:42:52;;;;;;;4.03;2.25;;;;;25.60;94354.00;;;;7397288;19;20137;-78
2022/06/02 12:45:38;;;;;;;2.97;1.70;;;;;25.60;94351.00;;;;7394140;19;20147;-78
2022/06/02 12:48:30;;;;;;;2.20;1.80;;;;;25.70;94350.00;;;;7395492;19;20465;-77
2022/06/02 12:51:34;;;;;;;2.67;1.80;;;;;25.80;94346.00;;;;7392934;19;20175;-75
2022/06/02 12:54:43;;;;;;;5.55;1.90;;;;;25.70;94357.00;;;;7396059;19;20169;-77
2022/06/02 12:57:47;;;;;;;6.22;2.03;;;;;25.50;94356.00;;;;7394324;19;20204;-77
2022/06/02 13:00:33;;;;;;;14.07;2.38;;;;;24.80;94370.00;;;;7397522;19;20128;-75
2022/06/02 13:03:28;;;;;;;3.28;2.00;;;;;24.50;94370.00;;;;7393637;19;20137;-79
2022/06/02 13:06:03;;;;;;;5.25;2.00;;;;;24.10;94378.00;;;;7395147;19;20159;-79
2022/06/02 13:08:50;;;;;;;4.60;1.98;;;;;24.30;94380.00;;;;7392440;19;20133;-76
2022/06/02 13:11:34;;;;;;;3.03;1.98;;;;;24.00;94377.00;;;;7394786;19;20145;-75
2022/06/02 13:14:22;;;;;;;2.65;1.70;;;;;24.00;94380.00;;;;7392094;19;20141;-76
2022/06/02 13:17:35;;;;;;;4.93;2.25;;;;;23.90;94387.00;;;;7397270;19;20208;-77
2022/06/02 13:20:21;;;;;;;9.45;2.10;;;;;23.50;94394.00;;;;7390519;19;20148;-75
2022/06/02 13:23:14;;;;;;;3.00;2.15;;;;;23.60;94384.00;;;;7393925;19;20220;-75
2022/06/02 13:26:01;;;;;;;2.63;1.88;;;;;23.30;94376.00;;;;7392934;19;20141;-77
2022/06/02 13:28:58;;;;;;;2.58;1.75;;;;;23.40;94364.00;;;;7394331;19;20189;-75
2022/06/02 13:31:56;;;;;;;3.53;1.60;;;;;23.50;94367.00;;;;7391959;19;20182;-76
2022/06/02 13:34:53;;;;;;;3.63;1.92;;;;;23.50;94370.00;;;;7395426;19;20153;-77
2022/06/02 13:37:37;;;;;;;6.95;2.20;;;;;23.60;94372.00;;;;7393613;19;20144;-77
2022/06/02 13:40:25;;;;;;;3.85;1.80;;;;;23.60;94368.00;;;;7392590;19;20129;-77
2022/06/02 13:43:20;;;;;;;3.17;1.98;;;;;23.40;94371.00;;;;7391756;19;20543;-76
2022/06/02 13:46:09;;;;;;;5.32;1.90;;;;;23.70;94361.00;;;;7394235;19;20148;-76
2022/06/02 13:49:01;;;;;;;6.85;1.90;;;;;24.40;94363.00;;;;7402760;19;20140;-77
2022/06/02 13:52:15;;;;;;;8.65;2.00;;;;;24.50;94363.00;;;;7403407;19;20155;-75
2022/06/02 13:58:42;;;;;;;2.30;1.88;;;;;24.40;94354.00;;;;7399066;19;20148;-75
2022/06/02 14:01:53;;;;;;;3.17;2.08;;;;;24.00;94374.00;;;;7397673;19;20143;-75
2022/06/02 14:04:42;;;;;;;3.53;1.70;;;;;23.50;94365.00;;;;7400690;19;20173;-76
2022/06/02 14:07:45;;;;;;;2.15;1.60;;;;;23.40;94365.00;;;;7398437;19;20117;-75
2022/06/02 14:10:27;;;;;;;5.13;1.80;;;;;23.30;94369.00;;;;7400363;19;20510;-74
2022/06/02 14:13:04;;;;;;;3.75;1.95;;;;;23.30;94375.00;;;;7401267;19;20599;-75
2022/06/02 14:15:50;;;;;;;3.25;1.80;;;;;23.10;94377.00;;;;7398362;19;20156;-75
2022/06/02 14:18:36;;;;;;;2.35;1.60;;;;;23.20;94368.00;;;;7399974;19;20199;-75
2022/06/02 14:21:30;;;;;;;3.95;1.85;;;;;24.20;94365.00;;;;7399523;19;20188;-74
2022/06/02 14:24:15;;;;;;;3.72;2.00;;;;;24.40;94372.00;;;;7399775;19;20156;-77
2022/06/02 14:27:14;;;;;;;3.20;1.90;;;;;23.70;94369.00;;;;7400871;19;20136;-74
2022/06/02 14:30:08;;;;;;;2.88;1.63;;;;;23.40;94370.00;;;;7398155;19;20194;-75
2022/06/02 14:33:11;;;;;;;6.47;1.90;;;;;22.90;94369.00;;;;7402258;19;20432;-77